Janet — 9HSL8 — position and weather

sailwx.info

Track history (hours):
 
Tides and Currents Weather Stations Pressure Air Temp Water Temp Dewpoint Dewpoint Depression Visibility Wind Speed Wind Dir Waves Ship Positions

Janet

Last reported at 2016-Jul-28 23:26 UTC. Time now 2016-Jul-29 06:00 UTC.
Position N 40°07' E 014°11'.

Length 90 m; draft 3.5 m.

Type: Cargo ship. MMSI: 256371000.

Date/timePositionNaut miles runAvg speedWind from/ knotsBaromVisibWave heightAir tempDewpointWater temp
2016-Jul-28 23:26N 40°07' E 014°11'1112.0
2016-Jul-28 22:34N 40°16' E 014°04'62 7.7
2016-Jul-28 14:33N 41°14' E 013°34'0 0.0
2016-Jul-28 13:33N 41°14' E 013°34'0 0.0
2016-Jul-28 12:33N 41°14' E 013°34'0 0.0
2016-Jul-28 05:25N 41°14' E 013°34'0 0.0
2016-Jul-28 04:34N 41°14' E 013°34'0 0.0
2016-Jul-27 23:29N 41°14' E 013°34'0 0.0
2016-Jul-27 22:33N 41°14' E 013°34'0 0.0
2016-Jul-27 21:33N 41°14' E 013°34'0 0.0
2016-Jul-27 16:22N 41°14' E 013°34'0 0.0
2016-Jul-27 13:24N 41°14' E 013°34'0 0.0
2016-Jul-27 11:33N 41°14' E 013°34'0 0.0
2016-Jul-27 10:12N 41°14' E 013°34'0 0.0
2016-Jul-26 14:21N 41°14' E 013°34'0 0.0
2016-Jul-26 13:33N 41°14' E 013°34'0 0.0
2016-Jul-26 12:11N 41°14' E 013°34'2 0.1
2016-Jul-25 20:23N 41°13' E 013°37'235 8.7
2016-Jul-24 17:30N 38°55' E 009°29'288 9.9
2016-Jul-23 12:28N 40°14' E 003°29'20 9.5
2016-Jul-23 10:21N 40°09' E 003°04'810.1
2016-Jul-23 09:33N 40°07' E 002°54'1010.2
2016-Jul-23 08:33N 40°04' E 002°41'1110.8
2016-Jul-23 07:33N 40°01' E 002°27'1010.3
2016-Jul-23 06:33N 39°59' E 002°14'2010.1
2016-Jul-23 04:33N 39°53' E 001°49'1010.1
2016-Jul-23 03:34N 39°50' E 001°37'1010.0
2016-Jul-23 02:33N 39°48' E 001°24'10 9.9
2016-Jul-23 01:33N 39°45' E 001°12'69 9.7
2016-Jul-22 18:31N 39°26' W 000°14'4 4.0
2016-Jul-22 17:26N 39°27' W 000°19'0 0.0
2016-Jul-22 16:32N 39°27' W 000°19'0 0.0
2016-Jul-22 15:32N 39°27' W 000°19'0 0.0
2016-Jul-22 14:32N 39°27' W 000°19'0 0.0
2016-Jul-22 13:32N 39°27' W 000°19'0 0.0
2016-Jul-22 12:32N 39°27' W 000°19'0 0.0
2016-Jul-22 11:26N 39°27' W 000°19'0 0.0
2016-Jul-22 10:14N 39°27' W 000°19'0 0.0
2016-Jul-22 09:32N 39°27' W 000°19'0 0.0
2016-Jul-22 08:32N 39°27' W 000°19'0 0.0
2016-Jul-22 07:32N 39°27' W 000°19'0 0.0
2016-Jul-22 04:32N 39°27' W 000°19'0 0.0
2016-Jul-22 03:32N 39°27' W 000°19'0 0.0
2016-Jul-22 02:32N 39°27' W 000°19'0 0.0
2016-Jul-22 01:32N 39°27' W 000°19'0 0.0
2016-Jul-22 00:32N 39°27' W 000°19'0 0.0
2016-Jul-21 23:26N 39°27' W 000°19'0 0.0
2016-Jul-21 22:32N 39°27' W 000°19'0 0.0
2016-Jul-21 21:32N 39°27' W 000°19'0 0.0
2016-Jul-21 19:23N 39°27' W 000°19'1 1.7
2016-Jul-21 18:33N 39°27' W 000°18'0 0.0
2016-Jul-21 17:33N 39°27' W 000°18'0 0.0
2016-Jul-21 16:33N 39°27' W 000°18'0 0.0
2016-Jul-21 15:33N 39°27' W 000°18'0 0.0
2016-Jul-21 14:33N 39°27' W 000°18'0 0.0
2016-Jul-21 07:33N 39°27' W 000°18'0 0.0
2016-Jul-21 06:15N 39°27' W 000°18'0 0.0
2016-Jul-21 05:33N 39°27' W 000°18'0 0.0
2016-Jul-21 04:33N 39°27' W 000°18'0 0.0
2016-Jul-21 03:33N 39°27' W 000°18'0 0.0
2016-Jul-21 02:33N 39°27' W 000°18'0 0.0
2016-Jul-21 01:33N 39°27' W 000°18'0 0.0
2016-Jul-21 00:33N 39°27' W 000°18'0 0.0
2016-Jul-20 23:33N 39°27' W 000°18'0 0.0
2016-Jul-20 22:33N 39°27' W 000°18'0 0.0
2016-Jul-20 21:33N 39°27' W 000°18'0 0.0
2016-Jul-20 20:33N 39°27' W 000°18'0 0.0
2016-Jul-20 19:33N 39°27' W 000°18'0 0.0
2016-Jul-20 18:33N 39°27' W 000°18'0 0.0
2016-Jul-20 17:33N 39°27' W 000°18'0 0.0
2016-Jul-20 16:33N 39°27' W 000°18'0 0.0
2016-Jul-20 15:30N 39°27' W 000°18'0 0.0
2016-Jul-20 14:33N 39°27' W 000°18'0 0.0
2016-Jul-20 13:33N 39°27' W 000°18'0 0.0
2016-Jul-20 12:33N 39°27' W 000°18'0 0.0
2016-Jul-20 11:33N 39°27' W 000°18'0 0.0
2016-Jul-20 10:33N 39°27' W 000°18'0 0.0
2016-Jul-20 09:33N 39°27' W 000°18'0 0.0
2016-Jul-20 08:33N 39°27' W 000°18'0 0.0
2016-Jul-20 07:33N 39°27' W 000°18'0 0.0
2016-Jul-20 06:33N 39°27' W 000°18'0 0.0
2016-Jul-20 05:33N 39°27' W 000°18'0 0.0
2016-Jul-20 04:33N 39°27' W 000°18'0 0.0
2016-Jul-20 03:33N 39°27' W 000°18'0 0.0
2016-Jul-20 02:33N 39°27' W 000°18'0 0.0
2016-Jul-20 01:30N 39°27' W 000°18'0 0.0
2016-Jul-20 00:33N 39°27' W 000°18'0 0.0
2016-Jul-19 23:33N 39°27' W 000°18'0 0.0
2016-Jul-19 22:33N 39°27' W 000°18'20 9.9
2016-Jul-19 20:29N 39°17' E 000°05'2311.7
2016-Jul-19 18:32N 39°07' E 000°31'1111.0
2016-Jul-19 17:31N 39°00' E 000°43'1111.4
2016-Jul-19 16:33N 38°52' E 000°53'1311.7
2016-Jul-19 15:29N 38°43' E 001°05'1111.9
2016-Jul-19 14:32N 38°36' E 001°15'1411.5
2016-Jul-19 13:17N 38°28' E 001°31'911.4
2016-Jul-19 12:28N 38°25' E 001°42'1311.4
2016-Jul-19 11:18N 38°19' E 001°57'811.3
2016-Jul-19 10:33N 38°15' E 002°07'1111.4
2016-Jul-19 09:33N 38°11' E 002°20'1611.5
2016-Jul-19 08:08N 38°04' E 002°39'711.6
2016-Jul-19 07:33N 38°01' E 002°46'3611.5
2016-Jul-19 04:25N 37°46' E 003°28'1011.6
2016-Jul-19 03:33N 37°42' E 003°40'1211.7
2016-Jul-19 02:33N 37°36' E 003°53'1111.1
2016-Jul-19 01:33N 37°32' E 004°06'1111.0
2016-Jul-19 00:32N 37°27' E 004°18'  
Track history (hours):
 
Tides and Currents Weather Stations Pressure Air Temp Water Temp Dewpoint Dewpoint Depression Visibility Wind Speed Wind Dir Waves Ship Positions

Janet

Last reported at 2016-Jul-28 23:26 UTC. Time now 2016-Jul-29 06:00 UTC.
Position N 40°07' E 014°11'.

Length 90 m; draft 3.5 m.

Type: Cargo ship. MMSI: 256371000.

Date/timePositionNaut miles runAvg speedWind from/ knotsBaromVisibWave heightAir tempDewpointWater temp
2016-Jul-28 23:26N 40°07' E 014°11'1112.0
2016-Jul-28 22:34N 40°16' E 014°04'62 7.7
2016-Jul-28 14:33N 41°14' E 013°34'0 0.0
2016-Jul-28 13:33N 41°14' E 013°34'0 0.0
2016-Jul-28 12:33N 41°14' E 013°34'0 0.0
2016-Jul-28 05:25N 41°14' E 013°34'0 0.0
2016-Jul-28 04:34N 41°14' E 013°34'0 0.0
2016-Jul-27 23:29N 41°14' E 013°34'0 0.0
2016-Jul-27 22:33N 41°14' E 013°34'0 0.0
2016-Jul-27 21:33N 41°14' E 013°34'0 0.0
2016-Jul-27 16:22N 41°14' E 013°34'0 0.0
2016-Jul-27 13:24N 41°14' E 013°34'0 0.0
2016-Jul-27 11:33N 41°14' E 013°34'0 0.0
2016-Jul-27 10:12N 41°14' E 013°34'0 0.0
2016-Jul-26 14:21N 41°14' E 013°34'0 0.0
2016-Jul-26 13:33N 41°14' E 013°34'0 0.0
2016-Jul-26 12:11N 41°14' E 013°34'2 0.1
2016-Jul-25 20:23N 41°13' E 013°37'235 8.7
2016-Jul-24 17:30N 38°55' E 009°29'288 9.9
2016-Jul-23 12:28N 40°14' E 003°29'20 9.5
2016-Jul-23 10:21N 40°09' E 003°04'810.1
2016-Jul-23 09:33N 40°07' E 002°54'1010.2
2016-Jul-23 08:33N 40°04' E 002°41'1110.8
2016-Jul-23 07:33N 40°01' E 002°27'1010.3
2016-Jul-23 06:33N 39°59' E 002°14'2010.1
2016-Jul-23 04:33N 39°53' E 001°49'1010.1
2016-Jul-23 03:34N 39°50' E 001°37'1010.0
2016-Jul-23 02:33N 39°48' E 001°24'10 9.9
2016-Jul-23 01:33N 39°45' E 001°12'69 9.7
2016-Jul-22 18:31N 39°26' W 000°14'4 4.0
2016-Jul-22 17:26N 39°27' W 000°19'0 0.0
2016-Jul-22 16:32N 39°27' W 000°19'0 0.0
2016-Jul-22 15:32N 39°27' W 000°19'0 0.0
2016-Jul-22 14:32N 39°27' W 000°19'0 0.0
2016-Jul-22 13:32N 39°27' W 000°19'0 0.0
2016-Jul-22 12:32N 39°27' W 000°19'0 0.0
2016-Jul-22 11:26N 39°27' W 000°19'0 0.0
2016-Jul-22 10:14N 39°27' W 000°19'0 0.0
2016-Jul-22 09:32N 39°27' W 000°19'0 0.0
2016-Jul-22 08:32N 39°27' W 000°19'0 0.0
2016-Jul-22 07:32N 39°27' W 000°19'0 0.0
2016-Jul-22 04:32N 39°27' W 000°19'0 0.0
2016-Jul-22 03:32N 39°27' W 000°19'0 0.0
2016-Jul-22 02:32N 39°27' W 000°19'0 0.0
2016-Jul-22 01:32N 39°27' W 000°19'0 0.0
2016-Jul-22 00:32N 39°27' W 000°19'0 0.0
2016-Jul-21 23:26N 39°27' W 000°19'0 0.0
2016-Jul-21 22:32N 39°27' W 000°19'0 0.0
2016-Jul-21 21:32N 39°27' W 000°19'0 0.0
2016-Jul-21 19:23N 39°27' W 000°19'1 1.7
2016-Jul-21 18:33N 39°27' W 000°18'0 0.0
2016-Jul-21 17:33N 39°27' W 000°18'0 0.0
2016-Jul-21 16:33N 39°27' W 000°18'0 0.0
2016-Jul-21 15:33N 39°27' W 000°18'0 0.0
2016-Jul-21 14:33N 39°27' W 000°18'0 0.0
2016-Jul-21 07:33N 39°27' W 000°18'0 0.0
2016-Jul-21 06:15N 39°27' W 000°18'0 0.0
2016-Jul-21 05:33N 39°27' W 000°18'0 0.0
2016-Jul-21 04:33N 39°27' W 000°18'0 0.0
2016-Jul-21 03:33N 39°27' W 000°18'0 0.0
2016-Jul-21 02:33N 39°27' W 000°18'0 0.0
2016-Jul-21 01:33N 39°27' W 000°18'0 0.0
2016-Jul-21 00:33N 39°27' W 000°18'0 0.0
2016-Jul-20 23:33N 39°27' W 000°18'0 0.0
2016-Jul-20 22:33N 39°27' W 000°18'0 0.0
2016-Jul-20 21:33N 39°27' W 000°18'0 0.0
2016-Jul-20 20:33N 39°27' W 000°18'0 0.0
2016-Jul-20 19:33N 39°27' W 000°18'0 0.0
2016-Jul-20 18:33N 39°27' W 000°18'0 0.0
2016-Jul-20 17:33N 39°27' W 000°18'0 0.0
2016-Jul-20 16:33N 39°27' W 000°18'0 0.0
2016-Jul-20 15:30N 39°27' W 000°18'0 0.0
2016-Jul-20 14:33N 39°27' W 000°18'0 0.0
2016-Jul-20 13:33N 39°27' W 000°18'0 0.0
2016-Jul-20 12:33N 39°27' W 000°18'0 0.0
2016-Jul-20 11:33N 39°27' W 000°18'0 0.0
2016-Jul-20 10:33N 39°27' W 000°18'0 0.0
2016-Jul-20 09:33N 39°27' W 000°18'0 0.0
2016-Jul-20 08:33N 39°27' W 000°18'0 0.0
2016-Jul-20 07:33N 39°27' W 000°18'0 0.0
2016-Jul-20 06:33N 39°27' W 000°18'0 0.0
2016-Jul-20 05:33N 39°27' W 000°18'0 0.0
2016-Jul-20 04:33N 39°27' W 000°18'0 0.0
2016-Jul-20 03:33N 39°27' W 000°18'0 0.0
2016-Jul-20 02:33N 39°27' W 000°18'0 0.0
2016-Jul-20 01:30N 39°27' W 000°18'0 0.0
2016-Jul-20 00:33N 39°27' W 000°18'0 0.0
2016-Jul-19 23:33N 39°27' W 000°18'0 0.0
2016-Jul-19 22:33N 39°27' W 000°18'20 9.9
2016-Jul-19 20:29N 39°17' E 000°05'2311.7
2016-Jul-19 18:32N 39°07' E 000°31'1111.0
2016-Jul-19 17:31N 39°00' E 000°43'1111.4
2016-Jul-19 16:33N 38°52' E 000°53'1311.7
2016-Jul-19 15:29N 38°43' E 001°05'1111.9
2016-Jul-19 14:32N 38°36' E 001°15'1411.5
2016-Jul-19 13:17N 38°28' E 001°31'911.4
2016-Jul-19 12:28N 38°25' E 001°42'1311.4
2016-Jul-19 11:18N 38°19' E 001°57'811.3
2016-Jul-19 10:33N 38°15' E 002°07'1111.4
2016-Jul-19 09:33N 38°11' E 002°20'1611.5
2016-Jul-19 08:08N 38°04' E 002°39'711.6
2016-Jul-19 07:33N 38°01' E 002°46'3611.5
2016-Jul-19 04:25N 37°46' E 003°28'1011.6
2016-Jul-19 03:33N 37°42' E 003°40'1211.7
2016-Jul-19 02:33N 37°36' E 003°53'1111.1
2016-Jul-19 01:33N 37°32' E 004°06'1111.0
2016-Jul-19 00:32N 37°27' E 004°18'  

Dump ship's entire track history